createdAt,value
2023-03-26T00:00:00.868Z,9.443696
2023-03-26T00:01:00.858Z,9.443736
2023-03-26T00:02:00.988Z,9.443731
2023-03-26T00:03:00.877Z,9.443721
2023-03-26T00:04:00.849Z,9.443767
2023-03-26T00:05:00.802Z,9.443772
2023-03-26T00:06:00.837Z,9.443807
2023-03-26T00:07:00.816Z,9.443787
2023-03-26T00:08:00.798Z,9.443722
2023-03-26T00:09:00.788Z,9.443756
2023-03-26T00:10:00.797Z,9.443759
2023-03-26T00:11:01.249Z,9.443804
2023-03-26T00:12:01.784Z,9.443787
2023-03-26T00:13:00.778Z,9.443780
2023-03-26T00:14:00.786Z,9.443743
2023-03-26T00:15:00.756Z,9.443702
2023-03-26T00:16:00.771Z,9.443684
2023-03-26T00:17:00.768Z,9.443722
2023-03-26T00:18:00.832Z,9.443721
2023-03-26T00:19:00.754Z,9.443746
2023-03-26T00:20:00.733Z,9.443725
2023-03-26T00:21:00.719Z,9.443721
2023-03-26T00:22:00.744Z,9.443720
2023-03-26T00:23:00.692Z,9.443756
2023-03-26T00:24:00.710Z,9.443780
2023-03-26T00:25:00.713Z,9.443772
2023-03-26T00:26:00.691Z,9.443754
2023-03-26T00:27:00.708Z,9.443750
2023-03-26T00:28:00.711Z,9.443694
2023-03-26T00:29:00.765Z,9.443685
2023-03-26T00:30:00.682Z,9.443755
2023-03-26T00:31:00.718Z,9.443776
2023-03-26T00:32:00.650Z,9.443759
2023-03-26T00:33:00.684Z,9.443769
2023-03-26T00:34:00.674Z,9.443776
2023-03-26T00:35:00.653Z,9.443703
2023-03-26T00:36:02.571Z,9.443709
2023-03-26T00:37:00.651Z,9.443756
2023-03-26T00:38:00.618Z,9.443744
2023-03-26T00:39:00.611Z,9.443758
2023-03-26T00:40:00.928Z,9.443833
2023-03-26T00:41:00.616Z,9.443830
2023-03-26T00:42:00.622Z,9.443818
2023-03-26T00:43:00.590Z,9.443817
2023-03-26T00:44:00.619Z,9.443755
2023-03-26T00:45:00.634Z,9.443748
2023-03-26T00:46:00.655Z,9.443763
2023-03-26T00:47:00.572Z,9.443864
2023-03-26T00:48:02.841Z,9.443830
2023-03-26T00:49:01.581Z,9.443836
2023-03-26T00:50:00.545Z,9.443827
2023-03-26T00:51:00.592Z,9.443851
2023-03-26T00:52:00.567Z,9.443830
2023-03-26T00:53:00.556Z,9.443810
2023-03-26T00:54:00.559Z,9.443779
2023-03-26T00:55:00.558Z,9.443778
2023-03-26T00:56:00.626Z,9.443775
2023-03-26T00:57:00.530Z,9.443805
2023-03-26T00:58:00.520Z,9.443801
2023-03-26T00:59:00.520Z,9.443737
2023-03-26T01:00:00.533Z,9.443747
2023-03-26T01:01:00.507Z,9.443731
2023-03-26T01:02:00.564Z,9.443774
2023-03-26T01:03:00.593Z,9.443747
2023-03-26T01:04:07.584Z,9.443764
2023-03-26T01:05:02.530Z,9.443645
2023-03-26T01:06:00.448Z,9.443663
2023-03-26T01:07:00.456Z,9.443682
2023-03-26T01:08:00.479Z,9.443687
2023-03-26T01:09:00.552Z,9.443684
2023-03-26T01:10:00.431Z,9.443723
2023-03-26T01:11:00.438Z,9.443705
2023-03-26T01:12:01.436Z,9.443574
2023-03-26T01:13:00.435Z,9.443672
2023-03-26T01:14:00.428Z,9.443717
2023-03-26T01:15:00.418Z,9.443597
2023-03-26T01:16:00.440Z,9.443678
2023-03-26T01:17:00.414Z,9.443480
2023-03-26T01:18:00.442Z,9.443538
2023-03-26T01:19:00.383Z,9.443536
2023-03-26T01:20:00.411Z,9.443471
2023-03-26T01:21:00.371Z,9.443494
2023-03-26T01:22:00.369Z,9.443555
2023-03-26T01:23:00.419Z,9.443500
2023-03-26T01:24:00.363Z,9.443536
2023-03-26T01:25:00.359Z,9.443546
2023-03-26T01:26:00.356Z,9.443533
2023-03-26T01:27:00.355Z,9.443461
2023-03-26T01:28:00.361Z,9.443521
2023-03-26T01:29:00.356Z,9.443586
2023-03-26T01:30:00.312Z,9.443551
2023-03-26T01:31:00.308Z,9.443596
2023-03-26T01:32:00.314Z,9.443501
2023-03-26T01:33:00.375Z,9.443372
2023-03-26T01:34:00.286Z,9.443354
2023-03-26T01:35:00.303Z,9.443398
2023-03-26T01:36:00.344Z,9.443515
2023-03-26T01:37:00.282Z,9.443628
2023-03-26T01:38:00.310Z,9.443642
2023-03-26T01:39:00.543Z,9.443597
2023-03-26T01:40:00.307Z,9.443545
2023-03-26T01:41:00.280Z,9.443486
2023-03-26T01:42:00.243Z,9.443529
2023-03-26T01:43:00.247Z,9.443497
2023-03-26T01:44:00.350Z,9.443549
2023-03-26T01:45:00.240Z,9.443552
2023-03-26T01:46:00.223Z,9.443544
2023-03-26T01:47:00.262Z,9.443552
2023-03-26T01:48:00.263Z,9.443537
2023-03-26T01:49:00.211Z,9.443504
2023-03-26T01:50:00.218Z,9.443512
2023-03-26T01:51:00.214Z,9.443581
2023-03-26T01:52:00.180Z,9.443611
2023-03-26T01:53:00.215Z,9.443568
2023-03-26T01:54:00.210Z,9.443576
2023-03-26T01:55:00.182Z,9.443532
2023-03-26T01:56:00.214Z,9.443437
2023-03-26T01:57:00.328Z,9.443626
2023-03-26T01:58:00.155Z,9.443588
2023-03-26T01:59:00.158Z,9.443641
2023-03-26T02:00:00.176Z,9.443636
2023-03-26T02:01:00.433Z,9.443635
2023-03-26T02:02:00.258Z,9.443606
2023-03-26T02:03:00.222Z,9.443583
2023-03-26T02:04:00.132Z,9.443540
2023-03-26T02:05:00.153Z,9.443567
2023-03-26T02:06:00.146Z,9.443583
2023-03-26T02:07:00.105Z,9.443655
2023-03-26T02:08:00.102Z,9.443684
2023-03-26T02:09:00.108Z,9.443646
2023-03-26T02:10:00.160Z,9.443643
2023-03-26T02:11:00.113Z,9.443661
2023-03-26T02:12:00.113Z,9.443617
2023-03-26T02:13:00.069Z,9.443644
2023-03-26T02:14:00.055Z,9.443635
2023-03-26T02:15:00.041Z,9.443645
2023-03-26T02:16:00.114Z,9.443609
2023-03-26T02:17:00.036Z,9.443623
2023-03-26T02:18:00.140Z,9.443655
2023-03-26T02:19:00.024Z,9.443624
2023-03-26T02:20:00.031Z,9.443600
2023-03-26T02:21:00.031Z,9.443544
2023-03-26T02:22:00.068Z,9.443524
2023-03-26T02:22:59.999Z,9.443586
2023-03-26T02:23:59.992Z,9.443698
2023-03-26T02:24:59.981Z,9.443841
2023-03-26T02:26:00.140Z,9.443801
2023-03-26T02:26:59.974Z,9.443671
2023-03-26T02:27:59.969Z,9.443604
2023-03-26T02:28:59.955Z,9.443509
2023-03-26T02:29:59.960Z,9.443576
2023-03-26T02:30:59.962Z,9.443629
2023-03-26T02:32:00.055Z,9.443665
2023-03-26T02:33:00.969Z,9.443581
2023-03-26T02:33:59.937Z,9.443653
2023-03-26T02:34:59.993Z,9.443678
2023-03-26T02:36:00.022Z,9.443685
2023-03-26T02:36:59.922Z,9.443697
2023-03-26T02:37:59.933Z,9.443736
2023-03-26T02:38:59.890Z,9.443780
2023-03-26T02:39:59.895Z,9.443837
2023-03-26T02:40:59.900Z,9.443765
2023-03-26T02:41:59.891Z,9.443827
2023-03-26T02:42:59.883Z,9.443699
2023-03-26T02:43:59.866Z,9.443566
2023-03-26T02:44:59.877Z,9.443546
2023-03-26T02:45:59.944Z,9.443576
2023-03-26T02:46:59.840Z,9.443497
2023-03-26T02:47:59.922Z,9.443593
2023-03-26T02:48:59.857Z,9.443622
2023-03-26T02:49:59.837Z,9.443743
2023-03-26T02:50:59.822Z,9.443575
2023-03-26T02:51:59.814Z,9.443662
2023-03-26T02:52:59.814Z,9.443784
2023-03-26T02:53:59.822Z,9.443773
2023-03-26T02:54:59.820Z,9.443727
2023-03-26T02:55:59.792Z,9.443692
2023-03-26T02:56:59.793Z,9.443558
2023-03-26T02:57:59.804Z,9.443610
2023-03-26T02:58:59.814Z,9.443476
2023-03-26T02:59:59.776Z,9.443768
2023-03-26T03:00:59.794Z,9.443618
2023-03-26T03:01:59.825Z,9.443486
2023-03-26T03:02:59.830Z,9.443572
2023-03-26T03:03:59.813Z,9.443484
2023-03-26T03:04:59.738Z,9.443529
2023-03-26T03:05:59.758Z,9.443501
2023-03-26T03:06:59.783Z,9.443688
2023-03-26T03:07:59.727Z,9.443749
2023-03-26T03:08:59.743Z,9.443652
2023-03-26T03:09:59.731Z,9.443668
2023-03-26T03:10:59.723Z,9.443671
2023-03-26T03:11:59.718Z,9.443686
2023-03-26T03:12:59.737Z,9.443701
2023-03-26T03:13:59.696Z,9.443685
2023-03-26T03:14:59.688Z,9.443693
2023-03-26T03:15:59.675Z,9.443705
2023-03-26T03:16:59.694Z,9.443674
2023-03-26T03:17:59.723Z,9.443706
2023-03-26T03:18:59.681Z,9.443734
2023-03-26T03:19:59.735Z,9.443771
2023-03-26T03:20:59.645Z,9.443904
2023-03-26T03:21:59.647Z,9.443782
2023-03-26T03:22:59.664Z,9.443701
2023-03-26T03:24:00.134Z,9.443711
2023-03-26T03:24:59.636Z,9.443727
2023-03-26T03:25:59.736Z,9.443763
2023-03-26T03:26:59.635Z,9.443754
2023-03-26T03:27:59.612Z,9.443809
2023-03-26T03:28:59.670Z,9.443803
2023-03-26T03:29:59.608Z,9.443851
2023-03-26T03:30:59.627Z,9.443872
2023-03-26T03:31:59.629Z,9.443896
2023-03-26T03:32:59.613Z,9.443727
2023-03-26T03:33:59.575Z,9.443835
2023-03-26T03:34:59.602Z,9.443800
2023-03-26T03:35:59.610Z,9.443754
2023-03-26T03:36:59.577Z,9.443778
2023-03-26T03:37:59.558Z,9.443807
2023-03-26T03:38:59.541Z,9.443781
2023-03-26T03:39:59.549Z,9.443838
2023-03-26T03:40:59.528Z,9.443805
2023-03-26T03:41:59.553Z,9.443844
2023-03-26T03:42:59.551Z,9.443777
2023-03-26T03:43:59.515Z,9.443799
2023-03-26T03:44:59.550Z,9.443712
2023-03-26T03:45:59.515Z,9.443661
2023-03-26T03:46:59.501Z,9.443694
2023-03-26T03:47:59.520Z,9.443692
2023-03-26T03:48:59.517Z,9.443708
2023-03-26T03:49:59.471Z,9.443668
2023-03-26T03:50:59.496Z,9.443739
2023-03-26T03:51:59.458Z,9.443696
2023-03-26T03:52:59.473Z,9.443673
2023-03-26T03:53:59.472Z,9.443688
2023-03-26T03:54:59.453Z,9.443633
2023-03-26T03:55:59.450Z,9.443656
2023-03-26T03:56:59.552Z,9.443674
2023-03-26T03:57:59.450Z,9.443698
2023-03-26T03:58:59.428Z,9.443752
2023-03-26T03:59:59.463Z,9.443797
2023-03-26T04:00:59.413Z,9.443757
2023-03-26T04:01:59.430Z,9.443722
2023-03-26T04:02:59.465Z,9.443690
2023-03-26T04:03:59.547Z,9.443693
2023-03-26T04:04:59.401Z,9.443720
2023-03-26T04:05:59.400Z,9.443732
2023-03-26T04:06:59.376Z,9.443725
2023-03-26T04:07:59.369Z,9.443769
2023-03-26T04:08:59.421Z,9.443741
2023-03-26T04:09:59.359Z,9.443726
2023-03-26T04:10:59.351Z,9.443726
2023-03-26T04:11:59.360Z,9.443687
2023-03-26T04:12:59.345Z,9.443695
2023-03-26T04:13:59.341Z,9.443730
2023-03-26T04:14:59.334Z,9.443725
2023-03-26T04:15:59.549Z,9.443762
2023-03-26T04:16:59.329Z,9.443783
2023-03-26T04:17:59.316Z,9.443792
2023-03-26T04:18:59.329Z,9.443767
2023-03-26T04:19:59.302Z,9.443716
2023-03-26T04:20:59.296Z,9.443736
2023-03-26T04:21:59.273Z,9.443802
2023-03-26T04:22:59.276Z,9.443820
2023-03-26T04:23:59.304Z,9.443830
2023-03-26T04:24:59.258Z,9.443820
2023-03-26T04:25:59.262Z,9.443844
2023-03-26T04:26:59.249Z,9.443836
2023-03-26T04:27:59.245Z,9.443814
2023-03-26T04:28:59.237Z,9.443832
2023-03-26T04:29:59.253Z,9.443888
2023-03-26T04:30:59.285Z,9.443942
2023-03-26T04:31:59.230Z,9.443846
2023-03-26T04:32:59.249Z,9.443862
2023-03-26T04:33:59.215Z,9.443824
2023-03-26T04:34:59.303Z,9.443793
2023-03-26T04:35:59.250Z,9.443718
2023-03-26T04:36:59.228Z,9.443734
2023-03-26T04:37:59.200Z,9.443743
2023-03-26T04:38:59.179Z,9.443732
2023-03-26T04:39:59.215Z,9.443694
2023-03-26T04:40:59.196Z,9.443727
2023-03-26T04:41:59.175Z,9.443751
2023-03-26T04:42:59.165Z,9.443744
2023-03-26T04:43:59.165Z,9.443668
2023-03-26T04:44:59.158Z,9.443645
2023-03-26T04:45:59.175Z,9.443666
2023-03-26T04:46:59.199Z,9.443738
2023-03-26T04:47:59.195Z,9.443628
2023-03-26T04:48:59.117Z,9.443626
2023-03-26T04:49:59.133Z,9.443769
2023-03-26T04:50:59.129Z,9.443663
2023-03-26T04:51:59.137Z,9.443624
2023-03-26T04:52:59.116Z,9.443669
2023-03-26T04:53:59.104Z,9.443687
2023-03-26T04:54:59.131Z,9.443605
2023-03-26T04:55:59.078Z,9.443404
2023-03-26T04:56:59.117Z,9.443710
2023-03-26T04:57:59.138Z,9.443766
2023-03-26T04:58:59.065Z,9.443670
2023-03-26T04:59:59.064Z,9.443523
2023-03-26T05:00:59.085Z,9.443525
2023-03-26T05:02:00.146Z,9.443722
2023-03-26T05:02:59.035Z,9.443882
2023-03-26T05:03:59.088Z,9.443792
2023-03-26T05:04:59.025Z,9.443839
2023-03-26T05:05:59.090Z,9.443714
2023-03-26T05:07:00.028Z,9.443737
2023-03-26T05:07:59.050Z,9.443730
2023-03-26T05:08:59.017Z,9.443749
2023-03-26T05:09:58.998Z,9.443727
2023-03-26T05:10:59.003Z,9.443736
2023-03-26T05:11:59.017Z,9.443758
2023-03-26T05:12:59.832Z,9.443821
2023-03-26T05:13:59.028Z,9.443807
2023-03-26T05:14:58.987Z,9.443719
2023-03-26T05:15:58.999Z,9.443795
2023-03-26T05:16:58.964Z,9.443718
2023-03-26T05:17:59.055Z,9.443821
2023-03-26T05:18:58.976Z,9.443818
2023-03-26T05:19:58.979Z,9.443748
2023-03-26T05:20:58.949Z,9.443763
2023-03-26T05:21:58.920Z,9.443802
2023-03-26T05:22:58.924Z,9.443793
2023-03-26T05:23:58.925Z,9.443760
2023-03-26T05:24:58.917Z,9.443768
2023-03-26T05:25:58.912Z,9.443693
2023-03-26T05:26:58.928Z,9.443669
2023-03-26T05:27:58.900Z,9.443698
2023-03-26T05:28:58.907Z,9.443591
2023-03-26T05:29:58.940Z,9.443538
2023-03-26T05:30:58.887Z,9.443686
2023-03-26T05:31:58.876Z,9.443698
2023-03-26T05:32:58.973Z,9.443717
2023-03-26T05:33:58.853Z,9.443748
2023-03-26T05:34:58.853Z,9.443703
2023-03-26T05:35:58.930Z,9.443721
2023-03-26T05:36:58.835Z,9.443612
2023-03-26T05:37:58.830Z,9.443638
2023-03-26T05:38:58.854Z,9.443686
2023-03-26T05:39:58.829Z,9.443634
2023-03-26T05:40:58.829Z,9.443703
2023-03-26T05:41:58.808Z,9.443708
2023-03-26T05:42:58.827Z,9.443775
2023-03-26T05:43:58.801Z,9.443689
2023-03-26T05:44:58.794Z,9.443696
2023-03-26T05:45:58.798Z,9.443614
2023-03-26T05:46:58.785Z,9.443780
2023-03-26T05:47:58.813Z,9.443795
2023-03-26T05:48:58.769Z,9.443741
2023-03-26T05:49:58.757Z,9.443657
2023-03-26T05:50:58.764Z,9.443617
2023-03-26T05:51:58.771Z,9.443669
2023-03-26T05:52:58.758Z,9.443711
2023-03-26T05:53:58.747Z,9.443642
2023-03-26T05:54:58.771Z,9.443616
2023-03-26T05:55:58.766Z,9.443665
2023-03-26T05:56:58.778Z,9.443661
2023-03-26T05:57:58.709Z,9.443651
2023-03-26T05:58:58.719Z,9.443663
2023-03-26T05:59:58.718Z,9.443627
2023-03-26T06:00:58.720Z,9.443619
2023-03-26T06:01:58.691Z,9.443653
2023-03-26T06:02:58.848Z,9.443688
2023-03-26T06:03:58.774Z,9.443689
2023-03-26T06:04:58.701Z,9.443641
2023-03-26T06:05:58.694Z,9.443640
2023-03-26T06:06:58.694Z,9.443683
2023-03-26T06:07:58.672Z,9.443682
2023-03-26T06:09:01.548Z,9.443669
2023-03-26T06:09:58.639Z,9.443628
2023-03-26T06:10:58.644Z,9.443627
2023-03-26T06:12:33.673Z,9.443682
2023-03-26T06:13:33.654Z,9.443648
2023-03-26T06:13:58.670Z,9.443636
2023-03-26T06:14:58.616Z,9.443654
2023-03-26T06:15:58.710Z,9.443676
2023-03-26T06:16:58.611Z,9.443612
2023-03-26T06:17:58.633Z,9.443541
2023-03-26T06:18:58.676Z,9.443597
2023-03-26T06:19:58.592Z,9.443593
2023-03-26T06:20:58.605Z,9.443564
2023-03-26T06:21:58.557Z,9.443502
2023-03-26T06:22:58.574Z,9.443580
2023-03-26T06:23:58.571Z,9.443526
2023-03-26T06:24:58.578Z,9.443560
2023-03-26T06:25:58.521Z,9.443573
2023-03-26T06:26:59.532Z,9.443618
2023-03-26T06:27:58.543Z,9.443601
2023-03-26T06:28:58.597Z,9.443602
2023-03-26T06:29:58.552Z,9.443581
2023-03-26T06:30:58.524Z,9.443604
2023-03-26T06:32:09.201Z,9.443559
2023-03-26T06:33:00.560Z,9.443542
2023-03-26T06:33:58.530Z,9.443490
2023-03-26T06:34:58.576Z,9.443564
2023-03-26T06:35:58.540Z,9.443456
2023-03-26T06:36:58.503Z,9.443567
2023-03-26T06:37:58.609Z,9.443613
2023-03-26T06:38:58.470Z,9.443593
2023-03-26T06:39:58.480Z,9.443560
2023-03-26T06:40:58.464Z,9.443645
2023-03-26T06:41:58.450Z,9.443622
2023-03-26T06:43:08.342Z,9.443629
2023-03-26T06:43:59.452Z,9.443592
2023-03-26T06:44:58.434Z,9.443648
2023-03-26T06:45:58.501Z,9.443856
2023-03-26T06:46:58.472Z,9.443759
2023-03-26T06:47:58.416Z,9.443691
2023-03-26T06:48:58.429Z,9.443668
2023-03-26T06:49:58.460Z,9.443719
2023-03-26T06:51:38.559Z,9.443678
2023-03-26T06:51:59.540Z,9.443661
2023-03-26T06:52:58.459Z,9.443667
2023-03-26T06:53:58.467Z,9.443657
2023-03-26T06:54:58.439Z,9.443692
2023-03-26T06:55:58.436Z,9.443656
2023-03-26T06:56:58.434Z,9.443670
2023-03-26T06:57:58.422Z,9.443721
2023-03-26T06:58:58.475Z,9.443738
2023-03-26T06:59:59.611Z,9.443708
2023-03-26T07:00:58.497Z,9.443751
2023-03-26T07:01:58.395Z,9.443730
2023-03-26T07:02:58.352Z,9.443808
2023-03-26T07:03:59.828Z,9.443769
2023-03-26T07:04:58.309Z,9.443733
2023-03-26T07:05:58.320Z,9.443723
2023-03-26T07:06:58.293Z,9.443729
2023-03-26T07:07:58.332Z,9.443725
2023-03-26T07:08:58.278Z,9.443723
2023-03-26T07:09:58.271Z,9.443734
2023-03-26T07:10:58.309Z,9.443754
2023-03-26T07:11:58.304Z,9.443830
2023-03-26T07:12:58.274Z,9.443787
2023-03-26T07:13:58.250Z,9.443775
2023-03-26T07:15:00.351Z,9.443769
2023-03-26T07:15:58.319Z,9.443756
2023-03-26T07:16:58.242Z,9.443762
2023-03-26T07:17:58.277Z,9.443756
2023-03-26T07:18:58.233Z,9.443792
2023-03-26T07:19:58.228Z,9.443757
2023-03-26T07:20:58.200Z,9.443712
2023-03-26T07:21:58.197Z,9.443767
2023-03-26T07:22:58.196Z,9.443772
2023-03-26T07:23:58.213Z,9.443787
2023-03-26T07:24:58.166Z,9.443818
2023-03-26T07:25:58.198Z,9.443766
2023-03-26T07:26:58.149Z,9.443687
2023-03-26T07:27:58.189Z,9.443715
2023-03-26T07:29:03.626Z,9.443775
2023-03-26T07:30:00.137Z,9.443824
2023-03-26T07:30:58.123Z,9.443768
2023-03-26T07:31:58.165Z,9.443764
2023-03-26T07:32:58.149Z,9.443692
2023-03-26T07:33:58.116Z,9.443616
2023-03-26T07:34:58.088Z,9.443633
2023-03-26T07:35:58.202Z,9.443647
2023-03-26T07:36:58.099Z,9.443709
2023-03-26T07:37:58.074Z,9.443673
2023-03-26T07:38:58.095Z,9.443663
2023-03-26T07:39:58.819Z,9.443653
2023-03-26T07:40:58.061Z,9.443717
2023-03-26T07:41:58.079Z,9.443633
2023-03-26T07:42:58.060Z,9.443647
2023-03-26T07:43:58.074Z,9.443660
2023-03-26T07:44:58.017Z,9.443682
2023-03-26T07:45:58.048Z,9.443730
2023-03-26T07:46:58.033Z,9.443681
2023-03-26T07:47:58.073Z,9.443663
2023-03-26T07:48:58.013Z,9.443630
2023-03-26T07:49:58.036Z,9.443708
2023-03-26T07:50:58.343Z,9.443608
2023-03-26T07:51:57.984Z,9.443742
2023-03-26T07:52:58.045Z,9.443632
2023-03-26T07:53:57.963Z,9.443600
2023-03-26T07:54:58.147Z,9.443645
2023-03-26T07:55:57.979Z,9.443646
2023-03-26T07:56:59.141Z,9.443655
2023-03-26T07:57:58.932Z,9.443659
2023-03-26T07:58:58.925Z,9.443685
2023-03-26T07:59:58.903Z,9.443712
2023-03-26T08:00:57.950Z,9.443571
2023-03-26T08:01:57.971Z,9.443604
2023-03-26T08:02:58.036Z,9.443622
2023-03-26T08:03:58.039Z,9.443653
2023-03-26T08:04:57.970Z,9.443638
2023-03-26T08:05:57.891Z,9.443669
2023-03-26T08:06:57.931Z,9.443678
2023-03-26T08:07:57.919Z,9.443686
2023-03-26T08:08:57.875Z,9.443666
2023-03-26T08:09:57.864Z,9.443615
2023-03-26T08:10:58.061Z,9.443667
2023-03-26T08:11:57.878Z,9.443645
2023-03-26T08:12:57.862Z,9.443640
2023-03-26T08:13:57.857Z,9.443653
2023-03-26T08:14:57.897Z,9.443657
2023-03-26T08:15:58.550Z,9.443653
2023-03-26T08:16:57.882Z,9.443668
2023-03-26T08:17:58.057Z,9.443648
2023-03-26T08:18:57.807Z,9.443681
2023-03-26T08:19:57.803Z,9.443645
2023-03-26T08:20:57.785Z,9.443679
2023-03-26T08:21:57.797Z,9.443661
2023-03-26T08:22:58.354Z,9.443735
2023-03-26T08:23:57.811Z,9.443716
2023-03-26T08:24:57.772Z,9.443678
2023-03-26T08:25:57.767Z,9.443671
2023-03-26T08:26:57.809Z,9.443687
2023-03-26T08:27:57.786Z,9.443667
2023-03-26T08:28:57.772Z,9.443653
2023-03-26T08:29:57.789Z,9.443653
2023-03-26T08:30:58.043Z,9.443677
2023-03-26T08:31:57.707Z,9.443684
2023-03-26T08:32:57.741Z,9.443677
2023-03-26T08:33:57.690Z,9.443697
2023-03-26T08:34:57.695Z,9.443701
2023-03-26T08:35:57.789Z,9.443680
2023-03-26T08:36:57.684Z,9.443651
2023-03-26T08:37:57.674Z,9.443665
2023-03-26T08:38:57.652Z,9.443685
2023-03-26T08:39:57.665Z,9.443689
2023-03-26T08:40:58.937Z,9.443694
2023-03-26T08:41:57.664Z,9.443737
2023-03-26T08:42:57.667Z,9.443731
2023-03-26T08:43:57.678Z,9.443731
2023-03-26T08:44:57.622Z,9.443728
2023-03-26T08:45:57.620Z,9.443697
2023-03-26T08:46:57.608Z,9.443704
2023-03-26T08:47:57.607Z,9.443735
2023-03-26T08:48:57.636Z,9.443691
2023-03-26T08:49:57.607Z,9.443661
2023-03-26T08:50:57.802Z,9.443682
2023-03-26T08:51:57.658Z,9.443711
2023-03-26T08:52:59.102Z,9.443640
2023-03-26T08:53:57.587Z,9.443698
2023-03-26T08:54:57.549Z,9.443727
2023-03-26T08:55:57.541Z,9.443687
2023-03-26T08:56:57.668Z,9.443730
2023-03-26T08:57:57.525Z,9.443765
2023-03-26T08:58:57.606Z,9.443729
2023-03-26T08:59:59.695Z,9.443691
2023-03-26T09:00:57.608Z,9.443704
2023-03-26T09:01:57.550Z,9.443790
2023-03-26T09:02:57.553Z,9.443742
2023-03-26T09:03:57.510Z,9.443752
2023-03-26T09:04:57.602Z,9.443609
2023-03-26T09:05:57.470Z,9.443748
2023-03-26T09:06:57.503Z,9.443720
2023-03-26T09:07:57.493Z,9.443671
2023-03-26T09:08:57.446Z,9.443783
2023-03-26T09:09:57.477Z,9.443672
2023-03-26T09:10:57.563Z,9.443728
2023-03-26T09:11:57.459Z,9.443694
2023-03-26T09:12:57.491Z,9.443723
2023-03-26T09:13:57.515Z,9.443718
2023-03-26T09:14:57.437Z,9.443833
2023-03-26T09:15:57.506Z,9.443764
2023-03-26T09:16:57.397Z,9.443760
2023-03-26T09:17:58.144Z,9.443695
2023-03-26T09:18:58.593Z,9.443686
2023-03-26T09:19:57.382Z,9.443733
2023-03-26T09:20:57.745Z,9.443616
2023-03-26T09:21:57.391Z,9.443574
2023-03-26T09:22:57.409Z,9.443774
2023-03-26T09:23:57.392Z,9.443744
2023-03-26T09:24:57.357Z,9.443768
2023-03-26T09:25:57.364Z,9.443748
2023-03-26T09:26:57.364Z,9.443599
2023-03-26T09:27:57.356Z,9.443568
2023-03-26T09:28:57.330Z,9.443573
2023-03-26T09:29:57.369Z,9.443591
2023-03-26T09:30:57.405Z,9.443667
2023-03-26T09:31:57.377Z,9.443601
2023-03-26T09:32:57.314Z,9.443658
2023-03-26T09:33:57.352Z,9.443705
2023-03-26T09:34:57.300Z,9.443676
2023-03-26T09:35:57.368Z,9.443801
2023-03-26T09:36:57.342Z,9.443729
2023-03-26T09:37:58.089Z,9.443791
2023-03-26T09:38:57.396Z,9.443741
2023-03-26T09:39:58.364Z,9.443846
2023-03-26T09:40:57.444Z,9.443750
2023-03-26T09:41:57.302Z,9.443833
2023-03-26T09:42:57.262Z,9.443797
2023-03-26T09:43:57.235Z,9.443691
2023-03-26T09:44:57.228Z,9.443688
2023-03-26T09:45:57.252Z,9.443655
2023-03-26T09:46:57.225Z,9.443675
2023-03-26T09:47:57.206Z,9.443753
2023-03-26T09:48:57.248Z,9.443782
2023-03-26T09:49:57.181Z,9.443686
2023-03-26T09:50:57.505Z,9.443677
2023-03-26T09:51:57.180Z,9.443706
2023-03-26T09:52:57.304Z,9.443697
2023-03-26T09:53:57.174Z,9.443811
2023-03-26T09:54:57.164Z,9.443709
2023-03-26T09:55:57.312Z,9.443761
2023-03-26T09:56:57.257Z,9.443726
2023-03-26T09:57:57.175Z,9.443769
2023-03-26T09:58:57.172Z,9.443706
2023-03-26T09:59:57.152Z,9.443693
2023-03-26T10:00:57.444Z,9.443759
2023-03-26T10:01:57.158Z,9.443744
2023-03-26T10:02:57.168Z,9.443667
2023-03-26T10:03:57.190Z,9.443692
2023-03-26T10:04:57.104Z,9.443726
2023-03-26T10:05:57.072Z,9.443615
2023-03-26T10:06:57.085Z,9.443657
2023-03-26T10:07:57.062Z,9.443760
2023-03-26T10:08:57.076Z,9.443805
2023-03-26T10:09:57.058Z,9.443762
2023-03-26T10:10:57.255Z,9.443783
2023-03-26T10:11:57.204Z,9.443755
2023-03-26T10:13:05.042Z,9.443678
2023-03-26T10:13:59.075Z,9.443682
2023-03-26T10:14:57.007Z,9.443725
2023-03-26T10:15:57.113Z,9.443771
2023-03-26T10:16:57.119Z,9.443743
2023-03-26T10:17:57.018Z,9.443750
2023-03-26T10:18:57.052Z,9.443641
2023-03-26T10:19:56.990Z,9.443614
2023-03-26T10:20:57.082Z,9.443651
2023-03-26T10:21:56.965Z,9.443638
2023-03-26T10:22:57.041Z,9.443599
2023-03-26T10:23:56.993Z,9.443583
2023-03-26T10:24:56.975Z,9.443558
2023-03-26T10:25:56.919Z,9.443674
2023-03-26T10:27:09.861Z,9.443703
2023-03-26T10:27:57.918Z,9.443772
2023-03-26T10:28:56.924Z,9.443717
2023-03-26T10:29:57.098Z,9.443799
2023-03-26T10:30:57.278Z,9.443739
2023-03-26T10:31:57.000Z,9.443730
2023-03-26T10:32:57.098Z,9.443745
2023-03-26T10:33:56.876Z,9.443579
2023-03-26T10:34:56.884Z,9.443665
2023-03-26T10:35:57.807Z,9.443742
2023-03-26T10:36:56.859Z,9.443745
2023-03-26T10:37:56.894Z,9.443777
2023-03-26T10:38:56.831Z,9.443754
2023-03-26T10:39:56.895Z,9.443744
2023-03-26T10:40:56.973Z,9.443721
2023-03-26T10:41:56.826Z,9.443692
2023-03-26T10:42:56.892Z,9.443719
2023-03-26T10:44:07.379Z,9.443722
2023-03-26T10:44:58.802Z,9.443681
2023-03-26T10:45:56.836Z,9.443704
2023-03-26T10:46:56.794Z,9.443731
2023-03-26T10:47:56.815Z,9.443738
2023-03-26T10:48:56.768Z,9.443832
2023-03-26T10:49:56.877Z,9.443825
2023-03-26T10:50:56.945Z,9.443760
2023-03-26T10:51:56.764Z,9.443752
2023-03-26T10:52:56.764Z,9.443737
2023-03-26T10:53:56.760Z,9.443753
2023-03-26T10:54:56.752Z,9.443782
2023-03-26T10:55:56.730Z,9.443807
2023-03-26T10:56:56.792Z,9.443850
2023-03-26T10:57:56.804Z,9.443764
2023-03-26T10:58:56.698Z,9.443755
2023-03-26T10:59:56.773Z,9.443770
2023-03-26T11:00:56.876Z,9.443755
2023-03-26T11:01:56.722Z,9.443738
2023-03-26T11:02:56.706Z,9.443819
2023-03-26T11:03:56.693Z,9.443805
2023-03-26T11:04:56.721Z,9.443789
2023-03-26T11:05:56.732Z,9.443800
2023-03-26T11:06:56.636Z,9.443778
2023-03-26T11:07:56.774Z,9.443753
2023-03-26T11:08:56.691Z,9.443766
2023-03-26T11:09:56.769Z,9.443754
2023-03-26T11:10:56.817Z,9.443712
2023-03-26T11:11:56.633Z,9.443823
2023-03-26T11:12:56.679Z,9.443820
2023-03-26T11:13:56.844Z,9.443728
2023-03-26T11:14:56.712Z,9.443604
2023-03-26T11:15:56.593Z,9.443629
2023-03-26T11:16:56.568Z,9.443711
2023-03-26T11:17:56.623Z,9.443789
2023-03-26T11:18:56.570Z,9.443790
2023-03-26T11:19:56.570Z,9.443668
2023-03-26T11:20:56.785Z,9.443795
2023-03-26T11:21:57.569Z,9.443724
2023-03-26T11:22:56.547Z,9.443769
2023-03-26T11:24:05.394Z,9.443837
2023-03-26T11:24:57.543Z,9.443747
2023-03-26T11:25:56.571Z,9.443694
2023-03-26T11:26:56.503Z,9.443727
2023-03-26T11:27:56.487Z,9.443663
2023-03-26T11:29:04.127Z,9.443736
2023-03-26T11:29:58.432Z,9.443838
2023-03-26T11:30:56.714Z,9.443773
2023-03-26T11:31:56.557Z,9.443849
2023-03-26T11:32:57.512Z,9.443843
2023-03-26T11:33:56.584Z,9.443851
2023-03-26T11:34:56.464Z,9.443546
2023-03-26T11:35:56.461Z,9.443520
2023-03-26T11:36:56.469Z,9.443907
2023-03-26T11:37:56.433Z,9.444121
2023-03-26T11:38:56.435Z,9.444408
2023-03-26T11:39:56.807Z,9.444887
2023-03-26T11:40:58.043Z,9.444648
2023-03-26T11:41:56.750Z,9.444479
2023-03-26T11:42:56.472Z,9.444154
2023-03-26T11:43:56.456Z,9.444092